Time;durP1;ratioP1;P1;durP2;ratioP2;P2;SDS_P1;SDS_P2;PMS_P1;PMS_P2;Temp;Humidity;BMP_temperature;BMP_pressure;BME280_temperature;BME280_humidity;BME280_pressure;Samples;Min_cycle;Max_cycle;Signal;HPM_P1;HPM_P2
2021/07/27 04:55:01;;;;;;;;;;;;;;;27.05;50.92;100588.84;1856966;77;20237;-67
2021/07/27 04:57:28;;;;;;;;;;;;;;;27.12;49.74;100594.31;1828866;78;20396;-65
2021/07/27 04:59:55;;;;;;;;;;;;;;;27.12;49.80;100585.78;1823479;78;21022;-68
2021/07/27 05:02:23;;;;;;;;;;;;;;;27.18;50.20;100582.90;1826015;78;20117;-66
2021/07/27 05:04:51;;;;;;;;;;;;;;;27.35;50.17;100579.55;1813264;78;20423;-65
2021/07/27 05:07:18;;;;;;;;;;;;;;;27.65;48.97;100578.60;1816314;78;21244;-67
2021/07/27 05:09:45;;;;;;;;;;;;;;;27.93;48.11;100581.48;1818441;78;20410;-67
2021/07/27 05:12:11;;;;;;;;;;;;;;;28.23;48.26;100572.09;1809744;78;21787;-67
2021/07/27 05:14:38;;;;;;;;;;;;;;;28.60;46.94;100573.24;1786499;80;20084;-66
2021/07/27 05:17:06;;;;;;;;;;;;;;;28.84;46.09;100574.23;1787709;80;20080;-67
2021/07/27 05:19:34;;;;;;;;;;;;;;;28.97;46.05;100574.87;1761206;80;20119;-67
2021/07/27 05:22:03;;;;;;;;;;;;;;;29.17;45.96;100571.86;1769754;80;21028;-71
2021/07/27 05:24:30;;;;;;;;;;;;;;;29.50;44.68;100565.42;1778886;80;21181;-68
2021/07/27 05:26:56;;;;;;;;;;;;;;;29.79;44.18;100562.18;1776448;80;20094;-66
2021/07/27 05:29:23;;;;;;;;;;;;;;;30.08;43.70;100563.27;1777807;80;20080;-68
2021/07/27 05:31:50;;;;;;;;;;;;;;;30.48;42.85;100568.27;1779514;80;20083;-68
2021/07/27 05:34:16;;;;;;;;;;;;;;;30.91;42.41;100563.92;1789346;80;20111;-68
2021/07/27 05:36:44;;;;;;;;;;;;;;;31.36;41.75;100569.02;1785497;80;21206;-66
2021/07/27 05:39:11;;;;;;;;;;;;;;;31.60;40.41;100570.72;1777928;80;20406;-67
2021/07/27 05:41:39;;;;;;;;;;;;;;;31.64;40.09;100565.23;1785708;80;20147;-72
2021/07/27 05:44:06;;;;;;;;;;;;;;;31.78;39.54;100565.55;1792424;80;20111;-67
2021/07/27 05:46:33;;;;;;;;;;;;;;;32.02;39.31;100562.13;1786807;80;20115;-66
2021/07/27 05:49:01;;;;;;;;;;;;;;;32.13;38.42;100561.99;1786218;80;21991;-69
2021/07/27 05:51:28;;;;;;;;;;;;;;;32.11;38.30;100562.20;1786506;80;20398;-66
2021/07/27 05:53:54;;;;;;;;;;;;;;;32.10;38.39;100566.46;1733047;81;20158;-66
2021/07/27 05:56:21;;;;;;;;;;;;;;;32.16;38.59;100562.91;1743021;82;20154;-66
2021/07/27 05:58:48;;;;;;;;;;;;;;;32.35;37.49;100561.20;1731560;82;20107;-66
2021/07/27 06:01:17;;;;;;;;;;;;;;;32.45;37.06;100560.20;1738277;82;21068;-65
2021/07/27 06:03:44;;;;;;;;;;;;;;;32.40;36.54;100558.66;1736166;82;20229;-66
2021/07/27 06:06:10;;;;;;;;;;;;;;;32.33;37.60;100559.25;1749421;82;20097;-67
2021/07/27 06:08:37;;;;;;;;;;;;;;;32.54;36.96;100558.08;1743659;82;20091;-64
2021/07/27 06:11:07;;;;;;;;;;;;;;;32.65;36.99;100554.17;1746689;82;20510;-66
2021/07/27 06:13:35;;;;;;;;;;;;;;;32.74;36.06;100555.56;1733924;82;20100;-66
2021/07/27 06:16:04;;;;;;;;;;;;;;;33.05;35.22;100557.42;1733692;82;20428;-66
2021/07/27 06:18:34;;;;;;;;;;;;;;;33.30;35.46;100557.42;1745100;82;20185;-65
2021/07/27 06:21:04;;;;;;;;;;;;;;;33.61;34.96;100559.70;1744966;82;20150;-66
2021/07/27 06:23:30;;;;;;;;;;;;;;;33.73;34.29;100553.34;1718118;82;20103;-64
2021/07/27 06:25:57;;;;;;;;;;;;;;;33.67;34.05;100548.83;1735054;82;21012;-64
2021/07/27 06:28:24;;;;;;;;;;;;;;;33.67;33.29;100550.19;1740210;82;20138;-63
2021/07/27 06:30:51;;;;;;;;;;;;;;;33.54;33.78;100557.10;1736104;82;20115;-63
2021/07/27 06:33:18;;;;;;;;;;;;;;;33.52;33.56;100548.40;1737837;82;20453;-64
2021/07/27 06:35:44;;;;;;;;;;;;;;;33.71;33.25;100550.04;1743386;82;20126;-65
2021/07/27 06:38:11;;;;;;;;;;;;;;;33.79;32.91;100548.42;1736449;82;21020;-64
2021/07/27 06:40:38;;;;;;;;;;;;;;;33.99;32.34;100540.06;1737797;82;20382;-66
2021/07/27 06:43:05;;;;;;;;;;;;;;;34.16;31.58;100544.85;1748265;82;20115;-65
2021/07/27 06:45:32;;;;;;;;;;;;;;;34.41;31.85;100539.63;1741739;82;20140;-65
2021/07/27 06:47:59;;;;;;;;;;;;;;;34.68;31.08;100548.72;1736115;82;20155;-65
2021/07/27 06:50:26;;;;;;;;;;;;;;;34.82;31.26;100541.23;1745150;82;21148;-67
2021/07/27 06:52:54;;;;;;;;;;;;;;;34.91;30.33;100546.07;1731577;82;20180;-66
2021/07/27 06:55:20;;;;;;;;;;;;;;;34.93;30.14;100545.31;1747484;82;20130;-68
2021/07/27 06:57:47;;;;;;;;;;;;;;;34.99;29.79;100547.62;1747765;82;20376;-64
2021/07/27 07:00:15;;;;;;;;;;;;;;;34.75;30.70;100548.09;1748440;82;20114;-65
2021/07/27 07:02:42;;;;;;;;;;;;;;;34.50;31.79;100552.83;1715638;82;21222;-65
2021/07/27 07:05:09;;;;;;;;;;;;;;;34.35;31.60;100551.39;1748824;82;20368;-66
2021/07/27 07:07:37;;;;;;;;;;;;;;;34.07;31.59;100548.39;1742739;82;20118;-65
2021/07/27 07:10:07;;;;;;;;;;;;;;;33.73;32.20;100554.69;1747624;82;20166;-64
2021/07/27 07:12:35;;;;;;;;;;;;;;;33.57;33.03;100555.83;1729534;82;20387;-66
2021/07/27 07:15:03;;;;;;;;;;;;;;;33.69;32.30;100554.84;1747589;82;21515;-64
2021/07/27 07:17:30;;;;;;;;;;;;;;;34.01;31.60;100550.64;1727016;82;20099;-68
2021/07/27 07:19:57;;;;;;;;;;;;;;;34.25;31.60;100543.48;1748131;82;20119;-70
2021/07/27 07:22:24;;;;;;;;;;;;;;;34.56;31.47;100539.73;1744852;82;20161;-65
2021/07/27 07:24:51;;;;;;;;;;;;;;;34.73;30.67;100548.84;1745326;82;20110;-64
2021/07/27 07:27:18;;;;;;;;;;;;;;;34.58;31.47;100543.86;1745050;82;21071;-65
2021/07/27 07:29:47;;;;;;;;;;;;;;;34.48;31.37;100545.47;1747556;82;20095;-65
2021/07/27 07:32:14;;;;;;;;;;;;;;;34.34;31.05;100546.20;1747572;82;20163;-64
2021/07/27 07:34:41;;;;;;;;;;;;;;;34.23;31.88;100546.95;1743376;82;20120;-65
2021/07/27 07:37:08;;;;;;;;;;;;;;;34.41;31.67;100547.73;1742176;82;20412;-65
2021/07/27 07:39:35;;;;;;;;;;;;;;;34.71;30.78;100549.61;1742279;82;20927;-65
2021/07/27 07:42:04;;;;;;;;;;;;;;;34.99;30.45;100547.09;1743272;82;20150;-65
2021/07/27 07:44:32;;;;;;;;;;;;;;;35.16;31.03;100556.70;1737899;82;20139;-65
2021/07/27 07:46:59;;;;;;;;;;;;;;;35.48;30.74;100557.72;1744850;82;20154;-64
2021/07/27 07:49:26;;;;;;;;;;;;;;;35.82;30.17;100557.39;1748204;82;20170;-65
2021/07/27 07:51:55;;;;;;;;;;;;;;;36.01;29.45;100562.92;1737717;82;21231;-65
2021/07/27 07:54:30;;;;;;;;;;;;;;;36.20;28.70;100556.80;1742423;81;20154;-65
2021/07/27 07:56:52;;;;;;;;;;;;;;;36.36;28.97;100554.19;1740342;82;20158;-67
2021/07/27 07:59:18;;;;;;;;;;;;;;;36.33;29.46;100553.84;1747451;82;20095;-65
2021/07/27 08:01:47;;;;;;;;;;;;;;;36.25;29.37;100549.59;1738269;82;20073;-65
2021/07/27 08:04:15;;;;;;;;;;;;;;;36.12;29.67;100555.30;1740302;82;21014;-65
2021/07/27 08:06:42;;;;;;;;;;;;;;;36.01;29.20;100553.44;1741940;82;20206;-68
2021/07/27 08:09:11;;;;;;;;;;;;;;;35.99;29.31;100558.31;1743112;82;20083;-66
2021/07/27 08:11:40;;;;;;;;;;;;;;;36.13;29.22;100556.94;1737880;82;20119;-64
2021/07/27 08:14:08;;;;;;;;;;;;;;;36.43;28.45;100555.89;1751974;82;20103;-64
2021/07/27 08:16:36;;;;;;;;;;;;;;;36.71;28.04;100548.56;1750467;82;20087;-67
2021/07/27 08:19:04;;;;;;;;;;;;;;;36.81;28.27;100542.48;1742530;82;20097;-65
2021/07/27 08:21:31;;;;;;;;;;;;;;;36.82;28.77;100550.92;1732427;82;20405;-65
2021/07/27 08:23:59;;;;;;;;;;;;;;;36.82;29.10;100549.56;1747209;82;20117;-63
2021/07/27 08:26:27;;;;;;;;;;;;;;;36.66;29.04;100553.89;1747712;82;20377;-66
2021/07/27 08:28:54;;;;;;;;;;;;;;;36.31;28.73;100558.15;1746995;82;21228;-64
2021/07/27 08:31:21;;;;;;;;;;;;;;;35.92;28.95;100558.44;1740871;81;20236;-65
2021/07/27 08:33:50;;;;;;;;;;;;;;;35.52;29.83;100558.37;1744182;82;20107;-67
2021/07/27 08:36:17;;;;;;;;;;;;;;;35.22;30.52;100551.67;1741661;82;20075;-66
2021/07/27 08:38:45;;;;;;;;;;;;;;;34.64;31.62;100551.58;1738434;82;20194;-66
2021/07/27 08:41:13;;;;;;;;;;;;;;;34.13;32.26;100551.02;1738337;82;21089;-66
2021/07/27 08:43:41;;;;;;;;;;;;;;;33.85;32.58;100549.92;1747539;82;20095;-67
2021/07/27 08:46:08;;;;;;;;;;;;;;;33.63;33.19;100547.63;1734367;82;20107;-65
2021/07/27 08:48:37;;;;;;;;;;;;;;;33.60;33.19;100548.08;1750288;82;21526;-64
2021/07/27 08:51:05;;;;;;;;;;;;;;;33.75;33.07;100545.02;1720928;82;20099;-66
2021/07/27 08:53:31;;;;;;;;;;;;;;;34.07;32.85;100545.16;1742189;82;23161;-64
2021/07/27 08:55:59;;;;;;;;;;;;;;;34.42;32.12;100545.33;1727398;81;20478;-70
2021/07/27 08:58:27;;;;;;;;;;;;;;;34.44;31.53;100545.10;1733213;81;20097;-65
2021/07/27 09:00:54;;;;;;;;;;;;;;;34.19;31.84;100536.29;1744665;81;20451;-70
2021/07/27 09:03:21;;;;;;;;;;;;;;;34.11;32.57;100540.12;1741529;81;20115;-66
2021/07/27 09:05:51;;;;;;;;;;;;;;;33.98;33.00;100535.73;1737936;81;22014;-66
2021/07/27 09:08:18;;;;;;;;;;;;;;;34.02;32.46;100532.03;1722763;82;20209;-68
2021/07/27 09:10:45;;;;;;;;;;;;;;;34.20;32.31;100527.95;1740251;82;20425;-64
2021/07/27 09:13:13;;;;;;;;;;;;;;;34.25;32.43;100524.03;1768568;80;20116;-67
2021/07/27 09:15:43;;;;;;;;;;;;;;;34.16;31.95;100524.05;1731682;83;20126;-66
2021/07/27 09:18:12;;;;;;;;;;;;;;;33.93;32.23;100522.08;1734860;81;20746;-65
2021/07/27 09:20:49;;;;;;;;;;;;;;;33.80;32.12;100520.88;1732107;83;20085;-65
2021/07/27 09:23:18;;;;;;;;;;;;;;;33.44;33.05;100516.28;1752828;82;20081;-67
2021/07/27 09:25:47;;;;;;;;;;;;;;;33.11;33.68;100513.89;1752681;82;20093;-63
2021/07/27 09:28:14;;;;;;;;;;;;;;;32.89;34.38;100513.97;1768979;80;20077;-66
2021/07/27 09:30:42;;;;;;;;;;;;;;;32.88;34.54;100512.31;1769899;80;21059;-67
2021/07/27 09:33:10;;;;;;;;;;;;;;;32.89;34.02;100511.27;1778506;80;20145;-65
2021/07/27 09:35:38;;;;;;;;;;;;;;;32.89;33.81;100508.57;1750994;80;20468;-65
2021/07/27 09:38:12;;;;;;;;;;;;;;;32.92;33.95;100506.27;1733184;82;20154;-68
2021/07/27 09:40:54;;;;;;;;;;;;;;;32.82;33.56;100508.63;1733900;81;20148;-69
2021/07/27 09:43:22;;;;;;;;;;;;;;;32.48;33.50;100495.06;1762919;80;21063;-75
2021/07/27 09:45:52;;;;;;;;;;;;;;;32.12;34.12;100508.63;1762235;80;20136;-79
2021/07/27 09:48:20;;;;;;;;;;;;;;;31.82;34.82;100515.09;1732319;80;20095;-74
2021/07/27 09:50:51;;;;;;;;;;;;;;;31.57;35.09;100502.52;1760737;80;20078;-69
2021/07/27 09:53:18;;;;;;;;;;;;;;;31.36;35.35;100507.11;1764735;80;20094;-70
2021/07/27 09:55:44;;;;;;;;;;;;;;;31.27;35.02;100507.54;1754515;80;21014;-70
2021/07/27 09:58:13;;;;;;;;;;;;;;;31.28;34.99;100508.67;1762800;81;20451;-70
2021/07/27 10:00:57;;;;;;;;;;;;;;;31.36;34.37;100513.02;1760656;81;20171;-70
2021/07/27 10:03:25;;;;;;;;;;;;;;;31.42;34.55;100516.22;1749145;81;20136;-68
2021/07/27 10:05:56;;;;;;;;;;;;;;;31.43;34.60;100506.59;1764027;81;20092;-68
2021/07/27 10:08:31;;;;;;;;;;;;;;;31.48;33.98;100511.34;1725177;81;21137;-68
2021/07/27 10:11:11;;;;;;;;;;;;;;;31.46;33.91;100491.36;1756457;81;20158;-67
2021/07/27 10:13:40;;;;;;;;;;;;;;;31.48;33.80;100491.16;1756409;81;20121;-65
2021/07/27 10:16:07;;;;;;;;;;;;;;;31.48;33.65;100495.19;1762868;81;20117;-63
2021/07/27 10:18:34;;;;;;;;;;;;;;;31.44;33.10;100492.61;1757141;81;20089;-65
2021/07/27 10:21:23;;;;;;;;;;;;;;;31.45;33.63;100492.92;1758130;81;20417;-64
2021/07/27 10:23:46;;;;;;;;;;;;;;;31.46;34.27;100488.67;1763918;81;20093;-63
2021/07/27 10:26:13;;;;;;;;;;;;;;;31.48;34.71;100482.56;1727694;82;20401;-65
2021/07/27 10:28:40;;;;;;;;;;;;;;;31.50;35.01;100476.97;1746202;82;20411;-64
2021/07/27 10:31:07;;;;;;;;;;;;;;;31.48;34.73;100484.42;1753075;81;20087;-64
2021/07/27 10:33:34;;;;;;;;;;;;;;;31.46;34.25;100476.56;1752490;81;21136;-65
2021/07/27 10:36:01;;;;;;;;;;;;;;;31.49;34.71;100476.66;1749950;82;20097;-66
2021/07/27 10:38:36;;;;;;;;;;;;;;;31.49;35.29;100473.97;1749561;82;20095;-65
2021/07/27 10:41:16;;;;;;;;;;;;;;;31.49;35.36;100471.27;1741494;81;20515;-63
2021/07/27 10:43:43;;;;;;;;;;;;;;;31.44;35.55;100471.91;1745697;81;20202;-64
2021/07/27 10:46:11;;;;;;;;;;;;;;;31.39;35.33;100470.88;1745348;81;21014;-65
2021/07/27 10:48:39;;;;;;;;;;;;;;;31.36;35.35;100461.36;1745431;81;20459;-64
2021/07/27 10:51:07;;;;;;;;;;;;;;;31.39;35.69;100467.67;1757546;81;20395;-66
2021/07/27 10:53:34;;;;;;;;;;;;;;;31.45;36.38;100464.66;1754061;81;20693;-66
2021/07/27 10:56:03;;;;;;;;;;;;;;;31.49;36.58;100463.20;1728899;81;20173;-64
2021/07/27 10:58:30;;;;;;;;;;;;;;;31.44;36.73;100458.97;1731402;82;21145;-64
2021/07/27 11:01:09;;;;;;;;;;;;;;;31.38;36.72;100458.46;1730299;82;20074;-64
2021/07/27 11:03:36;;;;;;;;;;;;;;;31.39;37.05;100449.35;1730593;82;20089;-69
2021/07/27 11:06:03;;;;;;;;;;;;;;;31.42;36.71;100450.27;1707862;83;20595;-68
2021/07/27 11:08:30;;;;;;;;;;;;;;;31.45;36.42;100449.86;1735876;82;20103;-68
2021/07/27 11:11:10;;;;;;;;;;;;;;;31.48;35.15;100451.61;1743465;82;21121;-67
2021/07/27 11:13:37;;;;;;;;;;;;;;;31.49;35.44;100450.56;1736382;82;20115;-68
2021/07/27 11:16:04;;;;;;;;;;;;;;;31.50;35.37;100448.70;1737207;82;20397;-66
2021/07/27 11:18:31;;;;;;;;;;;;;;;31.52;35.89;100448.48;1735908;82;20535;-71
2021/07/27 11:21:03;;;;;;;;;;;;;;;31.55;35.42;100440.81;1737092;82;20408;-69
2021/07/27 11:23:33;;;;;;;;;;;;;;;31.58;35.66;100443.09;1705365;83;21271;-70
2021/07/27 11:25:59;;;;;;;;;;;;;;;31.63;35.74;100441.90;1700420;83;20159;-68
2021/07/27 11:28:37;;;;;;;;;;;;;;;31.65;35.56;100441.17;1737145;82;20415;-71
2021/07/27 11:31:17;;;;;;;;;;;;;;;31.67;35.06;100436.42;1732908;82;20098;-64
2021/07/27 11:33:52;;;;;;;;;;;;;;;31.67;34.96;100441.81;1702270;83;20113;-68
2021/07/27 11:36:26;;;;;;;;;;;;;;;31.62;34.27;100435.38;1736995;82;21976;-66
2021/07/27 11:39:06;;;;;;;;;;;;;;;31.52;34.48;100439.89;1725314;82;20089;-63
2021/07/27 11:41:33;;;;;;;;;;;;;;;31.43;34.94;100437.95;1740588;82;20488;-65
2021/07/27 11:44:01;;;;;;;;;;;;;;;31.35;35.28;100442.22;1726923;82;20402;-68
2021/07/27 11:46:34;;;;;;;;;;;;;;;31.32;35.31;100435.91;1741231;82;20120;-70
2021/07/27 11:49:03;;;;;;;;;;;;;;;31.29;34.33;100432.81;1740780;82;21062;-63
2021/07/27 11:51:31;;;;;;;;;;;;;;;31.29;34.03;100423.39;1712059;82;20434;-67
2021/07/27 11:54:00;;;;;;;;;;;;;;;31.34;34.26;100420.37;1738014;82;20123;-68
2021/07/27 11:56:27;;;;;;;;;;;;;;;31.38;34.58;100419.44;1736965;81;20425;-68
2021/07/27 11:59:01;;;;;;;;;;;;;;;31.36;33.34;100416.95;1749862;80;20401;-65
2021/07/27 12:01:38;;;;;;;;;;;;;;;31.32;33.43;100410.87;1753927;81;21115;-68
2021/07/27 12:04:04;;;;;;;;;;;;;;;31.25;34.04;100410.88;1766675;81;20105;-66
2021/07/27 12:06:31;;;;;;;;;;;;;;;31.17;34.20;100411.14;1785591;80;20130;-67
2021/07/27 12:09:03;;;;;;;;;;;;;;;31.12;34.36;100412.25;1776703;80;20426;-70
2021/07/27 12:11:30;;;;;;;;;;;;;;;31.09;33.79;100405.95;1780262;80;20128;-70
2021/07/27 12:13:58;;;;;;;;;;;;;;;31.05;34.05;100402.85;1783050;80;21935;-68
2021/07/27 12:16:24;;;;;;;;;;;;;;;31.02;34.20;100399.75;1773506;80;20080;-70
2021/07/27 12:18:52;;;;;;;;;;;;;;;31.01;33.91;100396.23;1778598;80;20437;-70
2021/07/27 12:21:19;;;;;;;;;;;;;;;30.97;33.68;100398.20;1778300;80;20092;-69
2021/07/27 12:23:48;;;;;;;;;;;;;;;30.93;34.26;100393.77;1755305;81;20129;-71
2021/07/27 12:26:14;;;;;;;;;;;;;;;30.91;34.22;100386.94;1761033;80;21924;-68
2021/07/27 12:28:41;;;;;;;;;;;;;;;30.90;33.96;100387.45;1757687;80;20079;-65
2021/07/27 12:31:08;;;;;;;;;;;;;;;30.93;34.57;100386.22;1760502;80;20156;-66
2021/07/27 12:33:35;;;;;;;;;;;;;;;30.93;34.34;100384.35;1745248;81;20098;-66
2021/07/27 12:36:03;;;;;;;;;;;;;;;30.92;34.45;100372.45;1780169;80;20195;-67
2021/07/27 12:38:33;;;;;;;;;;;;;;;30.89;35.13;100368.33;1755297;80;21128;-68
2021/07/27 12:41:00;;;;;;;;;;;;;;;30.87;35.33;100373.09;1736554;81;20386;-70
2021/07/27 12:43:28;;;;;;;;;;;;;;;30.85;35.30;100361.20;1768361;80;20170;-69
2021/07/27 12:45:56;;;;;;;;;;;;;;;30.85;35.61;100365.75;1758177;81;20237;-65
2021/07/27 12:48:25;;;;;;;;;;;;;;;30.83;35.13;100361.09;1766153;80;20130;-65
2021/07/27 12:50:52;;;;;;;;;;;;;;;30.76;35.15;100357.62;1777616;80;21150;-67
2021/07/27 12:53:22;;;;;;;;;;;;;;;30.71;34.78;100357.41;1757830;81;20146;-66
2021/07/27 12:55:48;;;;;;;;;;;;;;;30.71;35.01;100357.41;1744897;82;20115;-67
2021/07/27 12:58:15;;;;;;;;;;;;;;;30.70;34.82;100351.22;1742772;81;20384;-70
2021/07/27 13:00:43;;;;;;;;;;;;;;;30.70;34.92;100348.53;1728480;81;20986;-69
2021/07/27 13:03:14;;;;;;;;;;;;;;;30.73;34.81;100354.83;1754334;80;20865;-67
2021/07/27 13:05:40;;;;;;;;;;;;;;;30.72;34.48;100353.17;1755689;80;20140;-67
2021/07/27 13:08:07;;;;;;;;;;;;;;;30.70;34.75;100351.73;1740738;80;20177;-65
2021/07/27 13:10:34;;;;;;;;;;;;;;;30.68;34.38;100340.36;1751708;80;20178;-68
2021/07/27 13:13:01;;;;;;;;;;;;;;;30.67;34.58;100340.88;1766352;80;20503;-67
2021/07/27 13:15:29;;;;;;;;;;;;;;;30.66;34.71;100338.39;1749003;80;20122;-69
2021/07/27 13:17:59;;;;;;;;;;;;;;;30.64;34.93;100343.16;1770240;80;20094;-70
2021/07/27 13:20:26;;;;;;;;;;;;;;;30.63;35.21;100334.78;1758350;80;20079;-65
2021/07/27 13:22:53;;;;;;;;;;;;;;;30.64;35.70;100331.06;1766094;80;20468;-67
2021/07/27 13:25:20;;;;;;;;;;;;;;;30.62;36.08;100327.75;1745789;80;20339;-67
2021/07/27 13:27:47;;;;;;;;;;;;;;;30.62;36.00;100321.03;1776105;80;20428;-67
2021/07/27 13:30:15;;;;;;;;;;;;;;;30.59;36.01;100326.83;1767893;80;20117;-70
2021/07/27 13:32:41;;;;;;;;;;;;;;;30.56;35.73;100318.63;1765037;80;20080;-69
2021/07/27 13:35:10;;;;;;;;;;;;;;;30.53;36.22;100323.08;1775307;80;20135;-69
2021/07/27 13:37:36;;;;;;;;;;;;;;;30.50;36.37;100317.60;1741745;80;20089;-68
2021/07/27 13:40:04;;;;;;;;;;;;;;;30.53;36.39;100323.08;1768745;80;21158;-69
2021/07/27 13:42:32;;;;;;;;;;;;;;;30.55;35.67;100312.95;1774931;80;20491;-69
2021/07/27 13:44:59;;;;;;;;;;;;;;;30.56;36.15;100307.05;1764273;80;20241;-70
2021/07/27 13:47:28;;;;;;;;;;;;;;;30.55;36.26;100307.56;1767035;80;20145;-66
2021/07/27 13:49:55;;;;;;;;;;;;;;;30.55;36.33;100296.81;1770279;80;20109;-67
2021/07/27 13:52:22;;;;;;;;;;;;;;;30.57;36.25;100293.44;1769999;80;23245;-71
2021/07/27 13:54:48;;;;;;;;;;;;;;;30.59;36.61;100287.33;1776322;80;20137;-69
2021/07/27 13:57:16;;;;;;;;;;;;;;;30.61;36.76;100296.02;1758573;80;20207;-70
2021/07/27 13:59:44;;;;;;;;;;;;;;;30.60;36.25;100294.87;1743829;81;20118;-68
2021/07/27 14:02:11;;;;;;;;;;;;;;;30.56;35.96;100293.09;1739981;81;20110;-67
2021/07/27 14:04:38;;;;;;;;;;;;;;;30.55;35.74;100287.93;1738719;81;21140;-69
2021/07/27 14:07:05;;;;;;;;;;;;;;;30.53;35.62;100286.80;1737808;81;20280;-66
2021/07/27 14:09:33;;;;;;;;;;;;;;;30.52;35.80;100273.05;1736229;81;20111;-65
2021/07/27 14:12:00;;;;;;;;;;;;;;;30.49;36.21;100275.63;1735811;81;20328;-66
2021/07/27 14:14:26;;;;;;;;;;;;;;;30.47;36.41;100279.56;1761339;80;20099;-64
2021/07/27 14:16:53;;;;;;;;;;;;;;;30.45;36.67;100277.09;1714963;83;21139;-63
2021/07/27 14:19:21;;;;;;;;;;;;;;;30.42;36.28;100271.30;1746486;82;20087;-65
2021/07/27 14:21:48;;;;;;;;;;;;;;;30.39;36.66;100277.92;1747794;82;20095;-64
2021/07/27 14:24:16;;;;;;;;;;;;;;;30.35;37.19;100274.03;1747518;82;20099;-64
2021/07/27 14:26:43;;;;;;;;;;;;;;;30.30;37.54;100268.97;1747785;82;20273;-64
2021/07/27 14:29:10;;;;;;;;;;;;;;;30.24;37.50;100267.94;1747479;82;21170;-64
2021/07/27 14:31:37;;;;;;;;;;;;;;;30.20;37.70;100270.73;1745970;82;20158;-64
2021/07/27 14:34:03;;;;;;;;;;;;;;;30.16;37.53;100270.31;1745969;82;20110;-67
2021/07/27 14:36:30;;;;;;;;;;;;;;;30.13;37.44;100265.88;1746013;82;20130;-65
